sensor_id;sensor_type;location;lat;lon;timestamp;P1;durP1;ratioP1;P2;durP2;ratioP2
23702;SDS011;12030;50.376;8.762;2023-12-04T00:02:02;14.00;;;9.40;;
23702;SDS011;12030;50.376;8.762;2023-12-04T00:04:27;13.13;;;9.20;;
23702;SDS011;12030;50.376;8.762;2023-12-04T00:06:53;12.73;;;9.13;;
23702;SDS011;12030;50.376;8.762;2023-12-04T00:09:19;14.07;;;9.00;;
23702;SDS011;12030;50.376;8.762;2023-12-04T00:11:44;13.47;;;9.30;;
23702;SDS011;12030;50.376;8.762;2023-12-04T00:14:10;12.63;;;8.77;;
23702;SDS011;12030;50.376;8.762;2023-12-04T00:16:35;14.03;;;9.73;;
23702;SDS011;12030;50.376;8.762;2023-12-04T00:19:01;11.03;;;8.87;;
23702;SDS011;12030;50.376;8.762;2023-12-04T00:21:27;15.43;;;9.37;;
23702;SDS011;12030;50.376;8.762;2023-12-04T00:23:52;12.77;;;9.03;;
23702;SDS011;12030;50.376;8.762;2023-12-04T00:26:18;14.50;;;9.03;;
23702;SDS011;12030;50.376;8.762;2023-12-04T00:28:43;15.27;;;9.60;;
23702;SDS011;12030;50.376;8.762;2023-12-04T00:31:09;14.80;;;9.37;;
23702;SDS011;12030;50.376;8.762;2023-12-04T00:33:35;12.20;;;8.97;;
23702;SDS011;12030;50.376;8.762;2023-12-04T00:36:01;14.57;;;9.37;;
23702;SDS011;12030;50.376;8.762;2023-12-04T00:38:27;14.23;;;9.13;;
23702;SDS011;12030;50.376;8.762;2023-12-04T00:40:52;11.60;;;8.73;;
23702;SDS011;12030;50.376;8.762;2023-12-04T00:43:18;13.33;;;8.60;;
23702;SDS011;12030;50.376;8.762;2023-12-04T00:45:43;15.07;;;9.20;;
23702;SDS011;12030;50.376;8.762;2023-12-04T00:48:09;12.60;;;8.60;;
23702;SDS011;12030;50.376;8.762;2023-12-04T00:50:34;14.13;;;9.67;;
23702;SDS011;12030;50.376;8.762;2023-12-04T00:53:00;14.80;;;9.67;;
23702;SDS011;12030;50.376;8.762;2023-12-04T00:55:26;14.23;;;9.33;;
23702;SDS011;12030;50.376;8.762;2023-12-04T00:57:51;13.07;;;8.33;;
23702;SDS011;12030;50.376;8.762;2023-12-04T01:00:17;14.67;;;9.13;;
23702;SDS011;12030;50.376;8.762;2023-12-04T01:02:43;13.50;;;8.83;;
23702;SDS011;12030;50.376;8.762;2023-12-04T01:05:08;12.90;;;8.93;;
23702;SDS011;12030;50.376;8.762;2023-12-04T01:07:34;14.53;;;9.40;;
23702;SDS011;12030;50.376;8.762;2023-12-04T01:09:59;13.90;;;9.07;;
23702;SDS011;12030;50.376;8.762;2023-12-04T01:12:25;12.83;;;8.30;;
23702;SDS011;12030;50.376;8.762;2023-12-04T01:14:51;13.30;;;9.00;;
23702;SDS011;12030;50.376;8.762;2023-12-04T01:17:17;12.60;;;8.40;;
23702;SDS011;12030;50.376;8.762;2023-12-04T01:19:42;13.60;;;9.10;;
23702;SDS011;12030;50.376;8.762;2023-12-04T01:22:08;15.37;;;9.90;;
23702;SDS011;12030;50.376;8.762;2023-12-04T01:24:33;14.33;;;8.97;;
23702;SDS011;12030;50.376;8.762;2023-12-04T01:26:59;13.07;;;9.00;;
23702;SDS011;12030;50.376;8.762;2023-12-04T01:29:24;16.30;;;8.90;;
23702;SDS011;12030;50.376;8.762;2023-12-04T01:31:50;16.80;;;9.67;;
23702;SDS011;12030;50.376;8.762;2023-12-04T01:34:15;14.93;;;10.20;;
23702;SDS011;12030;50.376;8.762;2023-12-04T01:36:41;12.83;;;8.70;;
23702;SDS011;12030;50.376;8.762;2023-12-04T01:39:06;13.00;;;9.07;;
23702;SDS011;12030;50.376;8.762;2023-12-04T01:41:32;12.90;;;9.23;;
23702;SDS011;12030;50.376;8.762;2023-12-04T01:43:58;14.27;;;9.17;;
23702;SDS011;12030;50.376;8.762;2023-12-04T01:46:23;14.57;;;9.47;;
23702;SDS011;12030;50.376;8.762;2023-12-04T01:48:49;14.67;;;9.60;;
23702;SDS011;12030;50.376;8.762;2023-12-04T01:51:15;13.57;;;8.70;;
23702;SDS011;12030;50.376;8.762;2023-12-04T01:53:43;14.07;;;9.43;;
23702;SDS011;12030;50.376;8.762;2023-12-04T01:56:09;16.90;;;9.87;;
23702;SDS011;12030;50.376;8.762;2023-12-04T01:58:35;15.30;;;9.80;;
23702;SDS011;12030;50.376;8.762;2023-12-04T02:01:02;13.33;;;9.17;;
23702;SDS011;12030;50.376;8.762;2023-12-04T02:03:28;14.63;;;9.73;;
23702;SDS011;12030;50.376;8.762;2023-12-04T02:05:54;13.20;;;9.63;;
23702;SDS011;12030;50.376;8.762;2023-12-04T02:08:21;14.27;;;9.67;;
23702;SDS011;12030;50.376;8.762;2023-12-04T02:10:47;12.93;;;9.23;;
23702;SDS011;12030;50.376;8.762;2023-12-04T02:13:12;14.40;;;9.43;;
23702;SDS011;12030;50.376;8.762;2023-12-04T02:15:38;15.90;;;10.07;;
23702;SDS011;12030;50.376;8.762;2023-12-04T02:18:03;16.20;;;10.67;;
23702;SDS011;12030;50.376;8.762;2023-12-04T02:20:33;15.37;;;9.67;;
23702;SDS011;12030;50.376;8.762;2023-12-04T02:23:00;14.87;;;9.53;;
23702;SDS011;12030;50.376;8.762;2023-12-04T02:25:26;13.03;;;9.37;;
23702;SDS011;12030;50.376;8.762;2023-12-04T02:27:52;13.23;;;8.97;;
23702;SDS011;12030;50.376;8.762;2023-12-04T02:30:19;14.03;;;9.53;;
23702;SDS011;12030;50.376;8.762;2023-12-04T02:32:48;15.13;;;9.67;;
23702;SDS011;12030;50.376;8.762;2023-12-04T02:35:16;15.67;;;10.20;;
23702;SDS011;12030;50.376;8.762;2023-12-04T02:37:48;13.17;;;9.27;;
23702;SDS011;12030;50.376;8.762;2023-12-04T02:40:14;17.73;;;10.53;;
23702;SDS011;12030;50.376;8.762;2023-12-04T02:42:40;16.87;;;9.93;;
23702;SDS011;12030;50.376;8.762;2023-12-04T02:45:06;17.00;;;10.43;;
23702;SDS011;12030;50.376;8.762;2023-12-04T02:47:32;16.10;;;9.63;;
23702;SDS011;12030;50.376;8.762;2023-12-04T02:49:57;14.87;;;9.57;;
23702;SDS011;12030;50.376;8.762;2023-12-04T02:52:23;15.30;;;10.17;;
23702;SDS011;12030;50.376;8.762;2023-12-04T02:54:48;17.40;;;10.60;;
23702;SDS011;12030;50.376;8.762;2023-12-04T02:57:14;16.57;;;10.13;;
23702;SDS011;12030;50.376;8.762;2023-12-04T02:59:39;15.53;;;10.03;;
23702;SDS011;12030;50.376;8.762;2023-12-04T03:02:05;14.57;;;10.57;;
23702;SDS011;12030;50.376;8.762;2023-12-04T03:04:30;15.10;;;9.97;;
23702;SDS011;12030;50.376;8.762;2023-12-04T03:06:56;17.27;;;11.03;;
23702;SDS011;12030;50.376;8.762;2023-12-04T03:09:22;14.80;;;10.00;;
23702;SDS011;12030;50.376;8.762;2023-12-04T03:11:48;15.90;;;10.80;;
23702;SDS011;12030;50.376;8.762;2023-12-04T03:14:13;16.30;;;10.13;;
23702;SDS011;12030;50.376;8.762;2023-12-04T03:16:39;17.30;;;10.63;;
23702;SDS011;12030;50.376;8.762;2023-12-04T03:19:04;16.67;;;10.23;;
23702;SDS011;12030;50.376;8.762;2023-12-04T03:21:30;17.17;;;11.13;;
23702;SDS011;12030;50.376;8.762;2023-12-04T03:23:56;20.00;;;11.10;;
23702;SDS011;12030;50.376;8.762;2023-12-04T03:26:21;18.50;;;11.13;;
23702;SDS011;12030;50.376;8.762;2023-12-04T03:28:47;15.93;;;10.30;;
23702;SDS011;12030;50.376;8.762;2023-12-04T03:31:12;16.00;;;10.27;;
23702;SDS011;12030;50.376;8.762;2023-12-04T03:33:38;14.80;;;10.10;;
23702;SDS011;12030;50.376;8.762;2023-12-04T03:36:03;16.27;;;10.03;;
23702;SDS011;12030;50.376;8.762;2023-12-04T03:38:29;17.87;;;10.60;;
23702;SDS011;12030;50.376;8.762;2023-12-04T03:40:55;17.70;;;11.07;;
23702;SDS011;12030;50.376;8.762;2023-12-04T03:43:20;16.43;;;9.73;;
23702;SDS011;12030;50.376;8.762;2023-12-04T03:45:46;16.23;;;9.57;;
23702;SDS011;12030;50.376;8.762;2023-12-04T03:48:12;16.77;;;11.00;;
23702;SDS011;12030;50.376;8.762;2023-12-04T03:50:37;18.30;;;11.27;;
23702;SDS011;12030;50.376;8.762;2023-12-04T03:53:03;14.37;;;10.13;;
23702;SDS011;12030;50.376;8.762;2023-12-04T03:55:28;15.20;;;10.00;;
23702;SDS011;12030;50.376;8.762;2023-12-04T03:57:54;12.43;;;7.40;;
23702;SDS011;12030;50.376;8.762;2023-12-04T04:00:21;17.23;;;10.20;;
23702;SDS011;12030;50.376;8.762;2023-12-04T04:02:47;15.37;;;10.27;;
23702;SDS011;12030;50.376;8.762;2023-12-04T04:05:13;15.40;;;9.83;;
23702;SDS011;12030;50.376;8.762;2023-12-04T04:07:39;17.60;;;10.20;;
23702;SDS011;12030;50.376;8.762;2023-12-04T04:10:05;15.70;;;9.97;;
23702;SDS011;12030;50.376;8.762;2023-12-04T04:12:31;15.17;;;10.50;;
23702;SDS011;12030;50.376;8.762;2023-12-04T04:14:58;17.73;;;10.33;;
23702;SDS011;12030;50.376;8.762;2023-12-04T04:17:23;17.53;;;10.80;;
23702;SDS011;12030;50.376;8.762;2023-12-04T04:19:52;17.00;;;11.10;;
23702;SDS011;12030;50.376;8.762;2023-12-04T04:22:18;17.23;;;11.33;;
23702;SDS011;12030;50.376;8.762;2023-12-04T04:24:44;17.03;;;10.83;;
23702;SDS011;12030;50.376;8.762;2023-12-04T04:27:10;15.93;;;10.90;;
23702;SDS011;12030;50.376;8.762;2023-12-04T04:29:35;14.50;;;9.97;;
23702;SDS011;12030;50.376;8.762;2023-12-04T04:32:01;19.23;;;10.90;;
23702;SDS011;12030;50.376;8.762;2023-12-04T04:34:26;17.53;;;10.47;;
23702;SDS011;12030;50.376;8.762;2023-12-04T04:36:52;15.50;;;10.17;;
23702;SDS011;12030;50.376;8.762;2023-12-04T04:39:17;15.17;;;10.37;;
23702;SDS011;12030;50.376;8.762;2023-12-04T04:41:43;15.93;;;10.53;;
23702;SDS011;12030;50.376;8.762;2023-12-04T04:44:09;17.80;;;10.93;;
23702;SDS011;12030;50.376;8.762;2023-12-04T04:46:35;17.00;;;11.07;;
23702;SDS011;12030;50.376;8.762;2023-12-04T04:49:00;15.57;;;10.13;;
23702;SDS011;12030;50.376;8.762;2023-12-04T04:51:27;17.53;;;11.23;;
23702;SDS011;12030;50.376;8.762;2023-12-04T04:53:54;18.43;;;10.73;;
23702;SDS011;12030;50.376;8.762;2023-12-04T04:56:20;15.53;;;10.90;;
23702;SDS011;12030;50.376;8.762;2023-12-04T04:58:46;16.77;;;11.03;;
23702;SDS011;12030;50.376;8.762;2023-12-04T05:01:11;15.30;;;10.23;;
23702;SDS011;12030;50.376;8.762;2023-12-04T05:03:37;15.17;;;10.53;;
23702;SDS011;12030;50.376;8.762;2023-12-04T05:06:02;17.33;;;10.33;;
23702;SDS011;12030;50.376;8.762;2023-12-04T05:08:28;16.83;;;10.70;;
23702;SDS011;12030;50.376;8.762;2023-12-04T05:10:54;14.90;;;10.63;;
23702;SDS011;12030;50.376;8.762;2023-12-04T05:13:19;17.80;;;11.37;;
23702;SDS011;12030;50.376;8.762;2023-12-04T05:15:45;17.83;;;11.57;;
23702;SDS011;12030;50.376;8.762;2023-12-04T05:18:10;18.77;;;11.73;;
23702;SDS011;12030;50.376;8.762;2023-12-04T05:20:36;17.43;;;11.90;;
23702;SDS011;12030;50.376;8.762;2023-12-04T05:23:02;18.60;;;11.77;;
23702;SDS011;12030;50.376;8.762;2023-12-04T05:25:27;17.53;;;11.40;;
23702;SDS011;12030;50.376;8.762;2023-12-04T05:27:53;17.27;;;11.60;;
23702;SDS011;12030;50.376;8.762;2023-12-04T05:30:18;16.33;;;11.60;;
23702;SDS011;12030;50.376;8.762;2023-12-04T05:32:44;17.57;;;11.87;;
23702;SDS011;12030;50.376;8.762;2023-12-04T05:35:09;17.43;;;11.37;;
23702;SDS011;12030;50.376;8.762;2023-12-04T05:37:35;16.97;;;11.73;;
23702;SDS011;12030;50.376;8.762;2023-12-04T05:40:00;18.37;;;11.93;;
23702;SDS011;12030;50.376;8.762;2023-12-04T05:42:26;16.57;;;10.93;;
23702;SDS011;12030;50.376;8.762;2023-12-04T05:44:51;16.17;;;11.03;;
23702;SDS011;12030;50.376;8.762;2023-12-04T05:47:20;13.97;;;9.93;;
23702;SDS011;12030;50.376;8.762;2023-12-04T05:49:46;15.03;;;10.53;;
23702;SDS011;12030;50.376;8.762;2023-12-04T05:52:11;18.17;;;11.87;;
23702;SDS011;12030;50.376;8.762;2023-12-04T05:54:37;19.33;;;11.93;;
23702;SDS011;12030;50.376;8.762;2023-12-04T05:57:03;16.87;;;10.93;;
23702;SDS011;12030;50.376;8.762;2023-12-04T05:59:28;18.87;;;11.63;;
23702;SDS011;12030;50.376;8.762;2023-12-04T06:01:54;15.47;;;10.73;;
23702;SDS011;12030;50.376;8.762;2023-12-04T06:04:19;15.77;;;10.87;;
23702;SDS011;12030;50.376;8.762;2023-12-04T06:06:45;16.37;;;10.87;;
23702;SDS011;12030;50.376;8.762;2023-12-04T06:09:10;17.17;;;10.63;;
23702;SDS011;12030;50.376;8.762;2023-12-04T06:11:36;17.90;;;11.13;;
23702;SDS011;12030;50.376;8.762;2023-12-04T06:14:01;16.93;;;11.30;;
23702;SDS011;12030;50.376;8.762;2023-12-04T06:16:27;17.53;;;10.83;;
23702;SDS011;12030;50.376;8.762;2023-12-04T06:18:52;14.83;;;10.53;;
23702;SDS011;12030;50.376;8.762;2023-12-04T06:21:18;18.27;;;11.67;;
23702;SDS011;12030;50.376;8.762;2023-12-04T06:23:43;19.93;;;12.97;;
23702;SDS011;12030;50.376;8.762;2023-12-04T06:26:10;18.50;;;12.37;;
23702;SDS011;12030;50.376;8.762;2023-12-04T06:28:37;17.57;;;11.43;;
23702;SDS011;12030;50.376;8.762;2023-12-04T06:31:03;20.07;;;12.30;;
23702;SDS011;12030;50.376;8.762;2023-12-04T06:33:29;18.73;;;11.80;;
23702;SDS011;12030;50.376;8.762;2023-12-04T06:35:55;17.67;;;11.73;;
23702;SDS011;12030;50.376;8.762;2023-12-04T06:38:24;17.07;;;11.50;;
23702;SDS011;12030;50.376;8.762;2023-12-04T06:40:50;19.00;;;12.23;;
23702;SDS011;12030;50.376;8.762;2023-12-04T06:43:16;15.07;;;10.80;;
23702;SDS011;12030;50.376;8.762;2023-12-04T06:45:43;18.87;;;11.73;;
23702;SDS011;12030;50.376;8.762;2023-12-04T06:48:10;16.47;;;11.07;;
23702;SDS011;12030;50.376;8.762;2023-12-04T06:50:38;19.20;;;11.53;;
23702;SDS011;12030;50.376;8.762;2023-12-04T06:53:05;15.30;;;10.83;;
23702;SDS011;12030;50.376;8.762;2023-12-04T06:55:31;16.77;;;11.50;;
23702;SDS011;12030;50.376;8.762;2023-12-04T06:57:56;17.83;;;11.43;;
23702;SDS011;12030;50.376;8.762;2023-12-04T07:00:22;18.37;;;11.53;;
23702;SDS011;12030;50.376;8.762;2023-12-04T07:02:47;16.20;;;10.93;;
23702;SDS011;12030;50.376;8.762;2023-12-04T07:05:13;20.60;;;12.67;;
23702;SDS011;12030;50.376;8.762;2023-12-04T07:07:39;18.07;;;11.47;;
23702;SDS011;12030;50.376;8.762;2023-12-04T07:10:04;19.20;;;11.87;;
23702;SDS011;12030;50.376;8.762;2023-12-04T07:12:30;18.10;;;11.60;;
23702;SDS011;12030;50.376;8.762;2023-12-04T07:14:55;17.67;;;12.43;;
23702;SDS011;12030;50.376;8.762;2023-12-04T07:17:21;18.17;;;12.10;;
23702;SDS011;12030;50.376;8.762;2023-12-04T07:19:47;16.00;;;10.87;;
23702;SDS011;12030;50.376;8.762;2023-12-04T07:22:12;20.03;;;12.03;;
23702;SDS011;12030;50.376;8.762;2023-12-04T07:24:38;17.93;;;11.33;;
23702;SDS011;12030;50.376;8.762;2023-12-04T07:27:04;19.90;;;11.33;;
23702;SDS011;12030;50.376;8.762;2023-12-04T07:29:30;16.57;;;11.80;;
23702;SDS011;12030;50.376;8.762;2023-12-04T07:31:55;18.87;;;11.53;;
23702;SDS011;12030;50.376;8.762;2023-12-04T07:34:21;19.43;;;12.37;;
23702;SDS011;12030;50.376;8.762;2023-12-04T07:36:46;20.13;;;12.57;;
23702;SDS011;12030;50.376;8.762;2023-12-04T07:39:13;17.87;;;12.77;;
23702;SDS011;12030;50.376;8.762;2023-12-04T07:41:38;20.60;;;13.10;;
23702;SDS011;12030;50.376;8.762;2023-12-04T07:44:04;18.50;;;13.00;;
23702;SDS011;12030;50.376;8.762;2023-12-04T07:46:29;19.77;;;12.37;;
23702;SDS011;12030;50.376;8.762;2023-12-04T07:48:55;19.73;;;11.70;;
23702;SDS011;12030;50.376;8.762;2023-12-04T07:51:20;20.27;;;12.93;;
23702;SDS011;12030;50.376;8.762;2023-12-04T07:53:46;21.17;;;12.40;;
23702;SDS011;12030;50.376;8.762;2023-12-04T07:56:12;19.33;;;12.00;;
23702;SDS011;12030;50.376;8.762;2023-12-04T07:58:38;17.40;;;11.57;;
23702;SDS011;12030;50.376;8.762;2023-12-04T08:01:04;19.50;;;12.27;;
23702;SDS011;12030;50.376;8.762;2023-12-04T08:03:30;19.23;;;11.87;;
23702;SDS011;12030;50.376;8.762;2023-12-04T08:05:56;18.27;;;12.23;;
23702;SDS011;12030;50.376;8.762;2023-12-04T08:08:23;17.83;;;12.00;;
23702;SDS011;12030;50.376;8.762;2023-12-04T08:10:48;14.93;;;10.53;;
23702;SDS011;12030;50.376;8.762;2023-12-04T08:13:14;17.30;;;10.93;;
23702;SDS011;12030;50.376;8.762;2023-12-04T08:15:40;18.50;;;11.67;;
23702;SDS011;12030;50.376;8.762;2023-12-04T08:18:06;17.23;;;11.23;;
23702;SDS011;12030;50.376;8.762;2023-12-04T08:20:31;16.50;;;11.13;;
23702;SDS011;12030;50.376;8.762;2023-12-04T08:22:57;16.37;;;11.20;;
23702;SDS011;12030;50.376;8.762;2023-12-04T08:25:23;16.10;;;11.03;;
23702;SDS011;12030;50.376;8.762;2023-12-04T08:27:48;19.07;;;11.53;;
23702;SDS011;12030;50.376;8.762;2023-12-04T08:30:14;16.30;;;11.90;;
23702;SDS011;12030;50.376;8.762;2023-12-04T08:32:40;18.80;;;11.50;;
23702;SDS011;12030;50.376;8.762;2023-12-04T08:35:06;15.40;;;10.53;;
23702;SDS011;12030;50.376;8.762;2023-12-04T08:37:31;15.53;;;10.40;;
23702;SDS011;12030;50.376;8.762;2023-12-04T08:39:57;17.13;;;10.50;;
23702;SDS011;12030;50.376;8.762;2023-12-04T08:42:22;14.43;;;9.67;;
23702;SDS011;12030;50.376;8.762;2023-12-04T08:44:48;15.33;;;10.03;;
23702;SDS011;12030;50.376;8.762;2023-12-04T08:47:14;15.30;;;9.83;;
23702;SDS011;12030;50.376;8.762;2023-12-04T08:49:40;12.90;;;9.23;;
23702;SDS011;12030;50.376;8.762;2023-12-04T08:52:09;13.40;;;9.67;;
23702;SDS011;12030;50.376;8.762;2023-12-04T08:54:35;14.43;;;8.93;;
23702;SDS011;12030;50.376;8.762;2023-12-04T08:57:03;13.60;;;9.33;;
23702;SDS011;12030;50.376;8.762;2023-12-04T08:59:29;16.20;;;9.63;;
23702;SDS011;12030;50.376;8.762;2023-12-04T09:01:54;14.73;;;10.60;;
23702;SDS011;12030;50.376;8.762;2023-12-04T09:04:20;13.60;;;9.07;;
23702;SDS011;12030;50.376;8.762;2023-12-04T09:06:45;15.03;;;9.93;;
23702;SDS011;12030;50.376;8.762;2023-12-04T09:09:11;13.20;;;8.63;;
23702;SDS011;12030;50.376;8.762;2023-12-04T09:11:40;12.37;;;8.37;;
23702;SDS011;12030;50.376;8.762;2023-12-04T09:14:09;13.27;;;8.67;;
23702;SDS011;12030;50.376;8.762;2023-12-04T09:16:34;13.77;;;9.87;;
23702;SDS011;12030;50.376;8.762;2023-12-04T09:19:00;12.90;;;9.13;;
23702;SDS011;12030;50.376;8.762;2023-12-04T09:21:26;13.50;;;9.67;;
23702;SDS011;12030;50.376;8.762;2023-12-04T09:23:51;12.87;;;8.77;;
23702;SDS011;12030;50.376;8.762;2023-12-04T09:26:17;12.57;;;9.50;;
23702;SDS011;12030;50.376;8.762;2023-12-04T09:28:43;14.23;;;9.83;;
23702;SDS011;12030;50.376;8.762;2023-12-04T09:31:09;13.30;;;9.37;;
23702;SDS011;12030;50.376;8.762;2023-12-04T09:33:34;12.57;;;8.33;;
23702;SDS011;12030;50.376;8.762;2023-12-04T09:36:01;11.63;;;8.37;;
23702;SDS011;12030;50.376;8.762;2023-12-04T09:38:26;11.60;;;8.67;;
23702;SDS011;12030;50.376;8.762;2023-12-04T09:40:52;13.13;;;9.00;;
23702;SDS011;12030;50.376;8.762;2023-12-04T09:43:20;12.60;;;8.00;;
23702;SDS011;12030;50.376;8.762;2023-12-04T09:45:46;12.10;;;8.70;;
23702;SDS011;12030;50.376;8.762;2023-12-04T09:48:12;12.63;;;8.77;;
23702;SDS011;12030;50.376;8.762;2023-12-04T09:50:37;11.57;;;8.23;;
23702;SDS011;12030;50.376;8.762;2023-12-04T09:53:04;11.63;;;8.30;;
23702;SDS011;12030;50.376;8.762;2023-12-04T09:55:31;10.90;;;8.40;;
23702;SDS011;12030;50.376;8.762;2023-12-04T09:57:56;12.70;;;8.63;;
23702;SDS011;12030;50.376;8.762;2023-12-04T10:00:22;13.47;;;9.23;;
23702;SDS011;12030;50.376;8.762;2023-12-04T10:02:49;13.90;;;9.10;;
23702;SDS011;12030;50.376;8.762;2023-12-04T10:05:15;15.53;;;9.03;;
23702;SDS011;12030;50.376;8.762;2023-12-04T10:07:40;13.67;;;9.53;;
23702;SDS011;12030;50.376;8.762;2023-12-04T10:10:06;12.37;;;8.67;;
23702;SDS011;12030;50.376;8.762;2023-12-04T10:12:32;13.37;;;9.13;;
23702;SDS011;12030;50.376;8.762;2023-12-04T10:15:02;13.33;;;8.63;;
23702;SDS011;12030;50.376;8.762;2023-12-04T10:17:32;13.53;;;9.17;;
23702;SDS011;12030;50.376;8.762;2023-12-04T10:20:05;10.70;;;8.13;;
23702;SDS011;12030;50.376;8.762;2023-12-04T10:22:35;13.50;;;9.00;;
23702;SDS011;12030;50.376;8.762;2023-12-04T10:25:25;12.07;;;8.33;;
23702;SDS011;12030;50.376;8.762;2023-12-04T10:27:53;13.73;;;8.80;;
23702;SDS011;12030;50.376;8.762;2023-12-04T10:30:26;12.73;;;8.53;;
23702;SDS011;12030;50.376;8.762;2023-12-04T10:32:56;13.63;;;8.17;;
23702;SDS011;12030;50.376;8.762;2023-12-04T10:35:25;14.27;;;8.80;;
23702;SDS011;12030;50.376;8.762;2023-12-04T10:37:55;12.57;;;9.10;;
23702;SDS011;12030;50.376;8.762;2023-12-04T10:40:25;14.30;;;8.90;;
23702;SDS011;12030;50.376;8.762;2023-12-04T10:42:59;10.93;;;8.40;;
23702;SDS011;12030;50.376;8.762;2023-12-04T10:45:38;12.23;;;8.23;;
23702;SDS011;12030;50.376;8.762;2023-12-04T10:48:05;13.20;;;8.90;;
23702;SDS011;12030;50.376;8.762;2023-12-04T10:50:34;12.40;;;8.40;;
23702;SDS011;12030;50.376;8.762;2023-12-04T10:53:03;12.23;;;8.63;;
23702;SDS011;12030;50.376;8.762;2023-12-04T10:55:36;11.93;;;8.37;;
23702;SDS011;12030;50.376;8.762;2023-12-04T10:58:03;12.97;;;8.47;;
23702;SDS011;12030;50.376;8.762;2023-12-04T11:00:34;11.17;;;8.07;;
23702;SDS011;12030;50.376;8.762;2023-12-04T11:03:03;13.63;;;8.90;;
23702;SDS011;12030;50.376;8.762;2023-12-04T11:05:33;12.27;;;8.43;;
23702;SDS011;12030;50.376;8.762;2023-12-04T11:08:06;13.27;;;9.13;;
23702;SDS011;12030;50.376;8.762;2023-12-04T11:10:33;12.90;;;9.57;;
23702;SDS011;12030;50.376;8.762;2023-12-04T11:13:41;12.37;;;9.03;;
23702;SDS011;12030;50.376;8.762;2023-12-04T11:16:01;11.97;;;8.80;;
23702;SDS011;12030;50.376;8.762;2023-12-04T11:18:31;11.67;;;8.97;;
23702;SDS011;12030;50.376;8.762;2023-12-04T11:21:04;12.20;;;8.13;;
23702;SDS011;12030;50.376;8.762;2023-12-04T11:23:35;12.30;;;8.70;;
23702;SDS011;12030;50.376;8.762;2023-12-04T11:26:02;14.30;;;8.53;;
23702;SDS011;12030;50.376;8.762;2023-12-04T11:28:30;11.27;;;7.97;;
23702;SDS011;12030;50.376;8.762;2023-12-04T11:30:56;12.50;;;8.77;;
23702;SDS011;12030;50.376;8.762;2023-12-04T11:33:23;10.90;;;7.97;;
23702;SDS011;12030;50.376;8.762;2023-12-04T11:35:49;12.37;;;8.90;;
23702;SDS011;12030;50.376;8.762;2023-12-04T11:38:18;12.57;;;8.57;;
23702;SDS011;12030;50.376;8.762;2023-12-04T11:40:46;13.67;;;8.73;;
23702;SDS011;12030;50.376;8.762;2023-12-04T11:43:45;11.33;;;7.73;;
23702;SDS011;12030;50.376;8.762;2023-12-04T11:46:07;13.27;;;8.70;;
23702;SDS011;12030;50.376;8.762;2023-12-04T11:48:36;13.00;;;9.03;;
23702;SDS011;12030;50.376;8.762;2023-12-04T11:51:02;11.70;;;8.53;;
23702;SDS011;12030;50.376;8.762;2023-12-04T11:53:28;12.07;;;8.57;;
23702;SDS011;12030;50.376;8.762;2023-12-04T11:55:55;11.80;;;8.40;;
23702;SDS011;12030;50.376;8.762;2023-12-04T11:58:22;12.87;;;8.87;;
23702;SDS011;12030;50.376;8.762;2023-12-04T12:00:47;13.63;;;8.57;;
23702;SDS011;12030;50.376;8.762;2023-12-04T12:03:14;12.33;;;8.50;;
23702;SDS011;12030;50.376;8.762;2023-12-04T12:05:40;11.20;;;8.83;;
23702;SDS011;12030;50.376;8.762;2023-12-04T12:08:07;12.47;;;8.17;;
23702;SDS011;12030;50.376;8.762;2023-12-04T12:10:34;12.53;;;8.27;;
23702;SDS011;12030;50.376;8.762;2023-12-04T12:12:59;16.13;;;9.23;;
23702;SDS011;12030;50.376;8.762;2023-12-04T12:15:26;11.17;;;8.53;;
23702;SDS011;12030;50.376;8.762;2023-12-04T12:17:53;13.70;;;9.03;;
23702;SDS011;12030;50.376;8.762;2023-12-04T12:20:19;11.13;;;8.30;;
23702;SDS011;12030;50.376;8.762;2023-12-04T12:22:48;10.57;;;8.13;;
23702;SDS011;12030;50.376;8.762;2023-12-04T12:25:14;13.33;;;9.00;;
23702;SDS011;12030;50.376;8.762;2023-12-04T12:27:40;12.03;;;8.77;;
23702;SDS011;12030;50.376;8.762;2023-12-04T12:30:07;10.70;;;8.00;;
23702;SDS011;12030;50.376;8.762;2023-12-04T12:32:33;11.27;;;8.47;;
23702;SDS011;12030;50.376;8.762;2023-12-04T12:34:59;12.77;;;8.23;;
23702;SDS011;12030;50.376;8.762;2023-12-04T12:37:25;10.43;;;7.73;;
23702;SDS011;12030;50.376;8.762;2023-12-04T12:39:53;13.60;;;8.43;;
23702;SDS011;12030;50.376;8.762;2023-12-04T12:42:23;12.20;;;7.80;;
23702;SDS011;12030;50.376;8.762;2023-12-04T12:44:53;13.67;;;8.40;;
23702;SDS011;12030;50.376;8.762;2023-12-04T12:47:20;13.17;;;9.03;;
23702;SDS011;12030;50.376;8.762;2023-12-04T12:49:46;11.60;;;8.60;;
23702;SDS011;12030;50.376;8.762;2023-12-04T12:52:12;11.90;;;8.13;;
23702;SDS011;12030;50.376;8.762;2023-12-04T12:54:38;10.37;;;8.10;;
23702;SDS011;12030;50.376;8.762;2023-12-04T12:57:08;9.50;;;7.27;;
23702;SDS011;12030;50.376;8.762;2023-12-04T12:59:34;8.13;;;6.70;;
23702;SDS011;12030;50.376;8.762;2023-12-04T13:02:00;10.97;;;7.87;;
23702;SDS011;12030;50.376;8.762;2023-12-04T13:04:32;12.43;;;8.50;;
23702;SDS011;12030;50.376;8.762;2023-12-04T13:07:08;14.57;;;7.90;;
23702;SDS011;12030;50.376;8.762;2023-12-04T13:09:34;10.67;;;7.67;;
23702;SDS011;12030;50.376;8.762;2023-12-04T13:12:03;11.20;;;7.90;;
23702;SDS011;12030;50.376;8.762;2023-12-04T13:14:29;9.93;;;7.53;;
23702;SDS011;12030;50.376;8.762;2023-12-04T13:16:55;11.57;;;7.30;;
23702;SDS011;12030;50.376;8.762;2023-12-04T13:19:21;8.63;;;6.77;;
23702;SDS011;12030;50.376;8.762;2023-12-04T13:21:47;9.83;;;7.13;;
23702;SDS011;12030;50.376;8.762;2023-12-04T13:24:13;9.97;;;7.03;;
23702;SDS011;12030;50.376;8.762;2023-12-04T13:26:39;10.17;;;7.07;;
23702;SDS011;12030;50.376;8.762;2023-12-04T13:29:04;8.97;;;6.63;;
23702;SDS011;12030;50.376;8.762;2023-12-04T13:31:31;11.07;;;7.40;;
23702;SDS011;12030;50.376;8.762;2023-12-04T13:33:58;10.27;;;7.37;;
23702;SDS011;12030;50.376;8.762;2023-12-04T13:36:23;11.73;;;7.27;;
23702;SDS011;12030;50.376;8.762;2023-12-04T13:38:49;8.90;;;6.77;;
23702;SDS011;12030;50.376;8.762;2023-12-04T13:41:14;7.87;;;6.40;;
23702;SDS011;12030;50.376;8.762;2023-12-04T13:43:58;10.40;;;7.33;;
23702;SDS011;12030;50.376;8.762;2023-12-04T13:46:24;11.00;;;7.13;;
23702;SDS011;12030;50.376;8.762;2023-12-04T13:48:52;9.83;;;7.07;;
23702;SDS011;12030;50.376;8.762;2023-12-04T13:51:17;11.90;;;7.47;;
23702;SDS011;12030;50.376;8.762;2023-12-04T13:53:44;14.13;;;7.10;;
23702;SDS011;12030;50.376;8.762;2023-12-04T13:56:14;11.10;;;7.23;;
23702;SDS011;12030;50.376;8.762;2023-12-04T13:58:45;11.33;;;7.87;;
23702;SDS011;12030;50.376;8.762;2023-12-04T14:01:11;10.20;;;7.17;;
23702;SDS011;12030;50.376;8.762;2023-12-04T14:03:42;9.00;;;6.60;;
23702;SDS011;12030;50.376;8.762;2023-12-04T14:06:10;11.43;;;7.43;;
23702;SDS011;12030;50.376;8.762;2023-12-04T14:08:36;12.13;;;7.80;;
23702;SDS011;12030;50.376;8.762;2023-12-04T14:11:02;11.40;;;8.00;;
23702;SDS011;12030;50.376;8.762;2023-12-04T14:13:28;13.20;;;8.30;;
23702;SDS011;12030;50.376;8.762;2023-12-04T14:15:54;11.77;;;8.27;;
23702;SDS011;12030;50.376;8.762;2023-12-04T14:18:21;11.17;;;8.10;;
23702;SDS011;12030;50.376;8.762;2023-12-04T14:20:47;10.83;;;7.73;;
23702;SDS011;12030;50.376;8.762;2023-12-04T14:23:13;12.53;;;8.40;;
23702;SDS011;12030;50.376;8.762;2023-12-04T14:25:39;11.47;;;7.93;;